createdAt,value
2017-02-12T00:00:05.320Z,361.26
2017-02-12T00:01:05.327Z,362.21
2017-02-12T00:02:05.322Z,362.68
2017-02-12T00:03:05.323Z,363.01
2017-02-12T00:04:05.318Z,363.9
2017-02-12T00:05:05.325Z,364.81
2017-02-12T00:06:05.322Z,366.81
2017-02-12T00:07:05.309Z,367.07
2017-02-12T00:08:05.321Z,367.44
2017-02-12T00:09:05.325Z,368.11
2017-02-12T00:10:05.318Z,368.9
2017-02-12T00:11:05.325Z,369.73
2017-02-12T00:12:05.326Z,370.25
2017-02-12T00:13:05.329Z,371.34
2017-02-12T00:14:05.322Z,371.97
2017-02-12T00:15:05.334Z,372.98
2017-02-12T00:16:05.323Z,372.26
2017-02-12T00:17:05.339Z,371.86
2017-02-12T00:18:05.319Z,372.97
2017-02-12T00:19:05.314Z,372.62
2017-02-12T00:20:05.321Z,371.83
2017-02-12T00:21:05.344Z,373.43
2017-02-12T00:22:05.320Z,373.62
2017-02-12T00:23:05.327Z,374.69
2017-02-12T00:24:05.331Z,373.76
2017-02-12T00:25:05.335Z,373.72
2017-02-12T00:26:05.330Z,373.79
2017-02-12T00:27:05.329Z,374.54
2017-02-12T00:28:05.330Z,374.66
2017-02-12T00:29:05.329Z,375.12
2017-02-12T00:30:05.340Z,375.13
2017-02-12T00:31:05.334Z,374.52
2017-02-12T00:32:05.336Z,374.96
2017-02-12T00:33:05.332Z,374.57
2017-02-12T00:34:05.336Z,374.37
2017-02-12T00:35:05.327Z,373.72
2017-02-12T00:36:05.330Z,373.75
2017-02-12T00:37:05.342Z,372.39
2017-02-12T00:38:05.340Z,372.44
2017-02-12T00:39:05.335Z,372.06
2017-02-12T00:40:05.334Z,371.94
2017-02-12T00:41:05.349Z,370.94
2017-02-12T00:42:05.343Z,370.59
2017-02-12T00:43:05.334Z,371.72
2017-02-12T00:44:05.339Z,370.78
2017-02-12T00:45:05.349Z,371.02
2017-02-12T00:46:05.341Z,371.95
2017-02-12T00:47:09.765Z,370.79
2017-02-12T00:48:09.618Z,370.7
2017-02-12T00:49:05.347Z,370.34
2017-02-12T00:50:05.354Z,370.65
2017-02-12T00:51:05.345Z,370.44
2017-02-12T00:52:05.357Z,371.26
2017-02-12T00:53:05.336Z,371.45
2017-02-12T00:54:05.343Z,371.84
2017-02-12T00:55:05.345Z,372.88
2017-02-12T00:56:05.356Z,373.33
2017-02-12T00:57:05.356Z,373.93
2017-02-12T00:58:05.353Z,373.76
2017-02-12T00:59:05.357Z,373.51
2017-02-12T01:00:05.349Z,374.1
2017-02-12T01:01:05.354Z,374.13
2017-02-12T01:02:05.366Z,374.15
2017-02-12T01:03:05.347Z,374.18
2017-02-12T01:04:05.356Z,373.76
2017-02-12T01:05:05.356Z,372.85
2017-02-12T01:06:05.359Z,372.6
2017-02-12T01:07:05.360Z,371.68
2017-02-12T01:08:05.371Z,371.42
2017-02-12T01:09:05.365Z,370.81
2017-02-12T01:10:05.358Z,369.89
2017-02-12T01:11:05.367Z,369
2017-02-12T01:12:05.370Z,368.34
2017-02-12T01:13:05.373Z,367.65
2017-02-12T01:14:05.367Z,367.66
2017-02-12T01:15:05.361Z,365.67
2017-02-12T01:16:05.365Z,366.84
2017-02-12T01:17:05.358Z,366.33
2017-02-12T01:18:05.357Z,365.28
2017-02-12T01:19:05.369Z,365.03
2017-02-12T01:20:05.366Z,364.4
2017-02-12T01:21:05.376Z,363.78
2017-02-12T01:22:05.379Z,363.59
2017-02-12T01:23:05.376Z,363.59
2017-02-12T01:24:05.377Z,363.64
2017-02-12T01:25:05.377Z,364.16
2017-02-12T01:26:05.367Z,364.62
2017-02-12T01:27:05.380Z,364.78
2017-02-12T01:28:05.384Z,365.06
2017-02-12T01:29:05.373Z,365.4
2017-02-12T01:30:05.376Z,367.46
2017-02-12T01:31:05.376Z,368.32
2017-02-12T01:32:05.385Z,369.66
2017-02-12T01:33:05.383Z,371
2017-02-12T01:34:05.369Z,371.4
2017-02-12T01:35:05.386Z,372.27
2017-02-12T01:36:05.381Z,373.14
2017-02-12T01:37:05.385Z,374.55
2017-02-12T01:38:05.379Z,375.46
2017-02-12T01:39:05.374Z,375.88
2017-02-12T01:40:05.378Z,376.52
2017-02-12T01:41:05.376Z,377.14
2017-02-12T01:42:05.377Z,377.58
2017-02-12T01:43:05.380Z,377.18
2017-02-12T01:44:05.380Z,377.14
2017-02-12T01:45:05.389Z,376.66
2017-02-12T01:46:05.396Z,375.75
2017-02-12T01:47:05.376Z,374.87
2017-02-12T01:48:05.392Z,373.95
2017-02-12T01:49:05.393Z,373.11
2017-02-12T01:50:05.385Z,372.44
2017-02-12T01:51:05.379Z,371.83
2017-02-12T01:52:05.384Z,371.4
2017-02-12T01:53:05.392Z,370.35
2017-02-12T01:54:05.391Z,369.17
2017-02-12T01:55:05.379Z,367.92
2017-02-12T01:56:05.395Z,367.26
2017-02-12T01:57:05.393Z,366.17
2017-02-12T01:58:05.384Z,365.54
2017-02-12T01:59:05.395Z,364.37
2017-02-12T02:00:05.384Z,362.36
2017-02-12T02:01:05.389Z,361.71
2017-02-12T02:02:05.413Z,362.4
2017-02-12T02:03:05.401Z,360.69
2017-02-12T02:04:05.393Z,360.04
2017-02-12T02:05:05.405Z,358.47
2017-02-12T02:06:05.402Z,359.93
2017-02-12T02:07:05.390Z,359.88
2017-02-12T02:08:05.398Z,359.32
2017-02-12T02:09:05.393Z,358.66
2017-02-12T02:10:05.428Z,357.79
2017-02-12T02:11:05.388Z,358.26
2017-02-12T02:12:05.393Z,359.03
2017-02-12T02:13:05.395Z,357.94
2017-02-12T02:14:05.403Z,358.66
2017-02-12T02:15:05.403Z,357.48
2017-02-12T02:16:05.399Z,357.18
2017-02-12T02:17:05.410Z,357.58
2017-02-12T02:18:05.400Z,358.09
2017-02-12T02:19:05.407Z,358.26
2017-02-12T02:20:05.399Z,357.09
2017-02-12T02:21:05.412Z,357.59
2017-02-12T02:22:05.404Z,357.53
2017-02-12T02:23:05.410Z,358.19
2017-02-12T02:24:05.400Z,358.84
2017-02-12T02:25:05.406Z,359.11
2017-02-12T02:26:05.408Z,359.05
2017-02-12T02:27:05.412Z,357.77
2017-02-12T02:28:05.438Z,356.18
2017-02-12T02:29:05.403Z,354.85
2017-02-12T02:30:05.406Z,353.53
2017-02-12T02:31:05.410Z,352.19
2017-02-12T02:32:05.420Z,351.32
2017-02-12T02:33:05.415Z,351.16
2017-02-12T02:34:05.411Z,349.4
2017-02-12T02:35:05.410Z,348.03
2017-02-12T02:36:05.419Z,348.29
2017-02-12T02:37:05.421Z,347.89
2017-02-12T02:38:05.419Z,347
2017-02-12T02:39:05.421Z,346.08
2017-02-12T02:40:05.415Z,343.3
2017-02-12T02:41:05.421Z,347.43
2017-02-12T02:42:05.414Z,347.19
2017-02-12T02:43:05.424Z,347.18
2017-02-12T02:44:05.463Z,347.21
2017-02-12T02:45:05.418Z,348.34
2017-02-12T02:46:05.456Z,348.26
2017-02-12T02:47:05.425Z,348.6
2017-02-12T02:48:05.431Z,348.55
2017-02-12T02:49:05.440Z,347.59
2017-02-12T02:50:05.440Z,348.12
2017-02-12T02:51:05.427Z,348.6
2017-02-12T02:52:05.434Z,349.59
2017-02-12T02:53:05.425Z,349.1
2017-02-12T02:54:05.431Z,348.4
2017-02-12T02:55:05.424Z,349.14
2017-02-12T02:56:05.429Z,350.05
2017-02-12T02:57:05.444Z,350.02
2017-02-12T02:58:05.430Z,350.93
2017-02-12T02:59:05.428Z,353.05
2017-02-12T03:00:05.426Z,352.51
2017-02-12T03:01:05.434Z,352.78
2017-02-12T03:02:05.439Z,353.27
2017-02-12T03:03:05.442Z,352.74
2017-02-12T03:04:05.437Z,353.64
2017-02-12T03:05:05.453Z,354.39
2017-02-12T03:06:05.441Z,353.52
2017-02-12T03:07:05.429Z,353.76
2017-02-12T03:08:05.433Z,352.19
2017-02-12T03:09:05.432Z,351.34
2017-02-12T03:10:05.444Z,351.27
2017-02-12T03:11:05.444Z,352.47
2017-02-12T03:12:05.447Z,351.93
2017-02-12T03:13:05.442Z,352.91
2017-02-12T03:14:05.434Z,353.64
2017-02-12T03:15:05.453Z,354.58
2017-02-12T03:16:05.440Z,354.82
2017-02-12T03:17:05.439Z,355.93
2017-02-12T03:18:05.441Z,356.47
2017-02-12T03:19:05.445Z,357
2017-02-12T03:20:05.436Z,357.88
2017-02-12T03:21:05.443Z,358.62
2017-02-12T03:22:05.443Z,358.33
2017-02-12T03:23:05.445Z,358.15
2017-02-12T03:24:05.449Z,358.58
2017-02-12T03:25:05.448Z,359.24
2017-02-12T03:26:05.450Z,359.27
2017-02-12T03:27:05.442Z,357.99
2017-02-12T03:28:05.453Z,358.35
2017-02-12T03:29:05.443Z,357.47
2017-02-12T03:30:05.455Z,357.46
2017-02-12T03:31:05.452Z,356.79
2017-02-12T03:32:05.450Z,355.35
2017-02-12T03:33:05.441Z,355.01
2017-02-12T03:34:05.450Z,354.96
2017-02-12T03:35:05.458Z,353.19
2017-02-12T03:36:05.445Z,354.09
2017-02-12T03:37:05.466Z,354.12
2017-02-12T03:38:05.461Z,353.91
2017-02-12T03:39:05.453Z,355.23
2017-02-12T03:40:05.460Z,354.92
2017-02-12T03:41:05.465Z,355.23
2017-02-12T03:42:05.459Z,356.11
2017-02-12T03:43:05.457Z,356.05
2017-02-12T03:44:05.457Z,356.07
2017-02-12T03:45:05.451Z,356.42
2017-02-12T03:46:05.450Z,355.9
2017-02-12T03:47:05.460Z,356.67
2017-02-12T03:48:05.462Z,355.93
2017-02-12T03:49:05.452Z,356.43
2017-02-12T03:50:05.453Z,354.87
2017-02-12T03:51:05.465Z,355.53
2017-02-12T03:52:05.473Z,355.61
2017-02-12T03:53:05.458Z,355.9
2017-02-12T03:54:05.471Z,354.5
2017-02-12T03:55:05.462Z,354.12
2017-02-12T03:56:05.464Z,351.14
2017-02-12T03:57:05.471Z,349.64
2017-02-12T03:58:05.469Z,348.74
2017-02-12T03:59:05.471Z,347.84
2017-02-12T04:00:05.470Z,345.94
2017-02-12T04:01:05.464Z,343.85
2017-02-12T04:02:05.472Z,342.64
2017-02-12T04:03:05.466Z,340.88
2017-02-12T04:04:05.473Z,338.63
2017-02-12T04:05:05.491Z,338.9
2017-02-12T04:06:05.477Z,336.67
2017-02-12T04:07:05.479Z,335.61
2017-02-12T04:08:05.488Z,333.14
2017-02-12T04:09:05.474Z,331.81
2017-02-12T04:10:05.485Z,329.45
2017-02-12T04:11:05.477Z,328.83
2017-02-12T04:12:05.485Z,327.54
2017-02-12T04:13:05.483Z,325.47
2017-02-12T04:14:05.469Z,325.12
2017-02-12T04:15:05.480Z,324.02
2017-02-12T04:16:05.480Z,323
2017-02-12T04:17:05.480Z,322.81
2017-02-12T04:18:05.477Z,322.92
2017-02-12T04:19:05.478Z,322.1
2017-02-12T04:20:05.479Z,321.61
2017-02-12T04:21:05.479Z,321.76
2017-02-12T04:22:05.481Z,320.71
2017-02-12T04:23:05.485Z,320.88
2017-02-12T04:24:05.488Z,321.92
2017-02-12T04:25:05.495Z,321.86
2017-02-12T04:26:05.485Z,322.12
2017-02-12T04:27:05.477Z,321.68
2017-02-12T04:28:05.488Z,320.15
2017-02-12T04:29:05.495Z,320.42
2017-02-12T04:30:05.488Z,319.8
2017-02-12T04:31:05.488Z,318.91
2017-02-12T04:32:05.482Z,318.46
2017-02-12T04:33:05.493Z,318.71
2017-02-12T04:34:05.530Z,317.54
2017-02-12T04:35:05.488Z,317.56
2017-02-12T04:36:05.497Z,316.48
2017-02-12T04:37:05.511Z,316.75
2017-02-12T04:38:05.503Z,315.87
2017-02-12T04:39:05.497Z,314.91
2017-02-12T04:40:05.491Z,313.46
2017-02-12T04:41:05.494Z,312.6
2017-02-12T04:42:05.502Z,312.12
2017-02-12T04:43:05.498Z,310.28
2017-02-12T04:44:05.507Z,309.61
2017-02-12T04:45:05.494Z,308.55
2017-02-12T04:46:05.490Z,306.97
2017-02-12T04:47:05.504Z,304.91
2017-02-12T04:48:05.502Z,303.7
2017-02-12T04:49:05.505Z,303.77
2017-02-12T04:50:05.506Z,302.12
2017-02-12T04:51:05.507Z,301.68
2017-02-12T04:52:05.508Z,300.81
2017-02-12T04:53:05.494Z,299.9
2017-02-12T04:54:05.510Z,299.61
2017-02-12T04:55:05.508Z,299.88
2017-02-12T04:56:05.507Z,299.18
2017-02-12T04:57:05.504Z,300.12
2017-02-12T04:58:05.506Z,300.39
2017-02-12T04:59:05.507Z,301.13
2017-02-12T05:00:05.497Z,301.79
2017-02-12T05:01:05.524Z,303.48
2017-02-12T05:02:05.513Z,304.26
2017-02-12T05:03:05.517Z,306.42
2017-02-12T05:04:05.510Z,306.87
2017-02-12T05:05:05.503Z,307.57
2017-02-12T05:06:05.511Z,309.54
2017-02-12T05:07:05.510Z,307.46
2017-02-12T05:08:05.509Z,312.54
2017-02-12T05:09:05.505Z,313.6
2017-02-12T05:10:05.517Z,314.76
2017-02-12T05:11:05.516Z,316.31
2017-02-12T05:12:05.513Z,317.43
2017-02-12T05:13:05.517Z,318.94
2017-02-12T05:14:05.514Z,320.86
2017-02-12T05:15:05.506Z,321.73
2017-02-12T05:16:05.526Z,322.22
2017-02-12T05:17:05.510Z,323.15
2017-02-12T05:18:05.505Z,323.82
2017-02-12T05:19:05.524Z,324.26
2017-02-12T05:20:05.515Z,325.18
2017-02-12T05:21:05.519Z,325.15
2017-02-12T05:22:05.516Z,325.41
2017-02-12T05:23:05.520Z,325.21
2017-02-12T05:24:05.524Z,325.22
2017-02-12T05:25:05.523Z,325.69
2017-02-12T05:26:05.529Z,324.53
2017-02-12T05:27:05.514Z,323.83
2017-02-12T05:28:05.520Z,323.11
2017-02-12T05:29:05.519Z,323.16
2017-02-12T05:30:05.524Z,322.07
2017-02-12T05:31:05.521Z,321.99
2017-02-12T05:32:05.535Z,321.89
2017-02-12T05:33:05.524Z,321.78
2017-02-12T05:34:05.523Z,322.5
2017-02-12T05:35:05.531Z,323.47
2017-02-12T05:36:05.532Z,323.9
2017-02-12T05:37:05.528Z,324.38
2017-02-12T05:38:05.528Z,325.33
2017-02-12T05:39:05.520Z,325.55
2017-02-12T05:40:05.521Z,326.43
2017-02-12T05:41:05.538Z,326.99
2017-02-12T05:42:05.530Z,327.9
2017-02-12T05:43:05.528Z,329.6
2017-02-12T05:44:05.532Z,332.09
2017-02-12T05:45:05.542Z,334.81
2017-02-12T05:46:05.532Z,336.3
2017-02-12T05:47:05.536Z,338.3
2017-02-12T05:48:05.544Z,340.79
2017-02-12T05:49:05.539Z,343.97
2017-02-12T05:50:05.539Z,345.98
2017-02-12T05:51:05.526Z,348.91
2017-02-12T05:52:05.531Z,352.04
2017-02-12T05:53:05.535Z,355.88
2017-02-12T05:54:05.542Z,358.71
2017-02-12T05:55:05.543Z,360.74
2017-02-12T05:56:05.533Z,363.81
2017-02-12T05:57:05.546Z,366.08
2017-02-12T05:58:05.543Z,367.65
2017-02-12T05:59:05.546Z,369.46
2017-02-12T06:00:05.550Z,370.51
2017-02-12T06:01:05.556Z,370.97
2017-02-12T06:02:05.557Z,372.25
2017-02-12T06:03:05.547Z,372.95
2017-02-12T06:04:05.548Z,373.16
2017-02-12T06:05:05.542Z,374.46
2017-02-12T06:06:05.576Z,375.15
2017-02-12T06:07:05.560Z,376.49
2017-02-12T06:08:05.543Z,376.85
2017-02-12T06:09:05.548Z,376.65
2017-02-12T06:10:05.548Z,376.3
2017-02-12T06:11:05.547Z,375.45
2017-02-12T06:12:05.557Z,375.19
2017-02-12T06:13:05.545Z,374.88
2017-02-12T06:14:05.549Z,374.4
2017-02-12T06:15:05.598Z,373.56
2017-02-12T06:16:05.565Z,373.6
2017-02-12T06:17:05.546Z,372.28
2017-02-12T06:18:05.549Z,372.66
2017-02-12T06:19:05.560Z,372.08
2017-02-12T06:20:05.558Z,372.68
2017-02-12T06:21:05.562Z,372.31
2017-02-12T06:22:05.552Z,372.48
2017-02-12T06:23:05.557Z,371.75
2017-02-12T06:24:05.568Z,371.09
2017-02-12T06:25:05.556Z,371.11
2017-02-12T06:26:05.567Z,369.93
2017-02-12T06:27:05.557Z,368.85
2017-02-12T06:28:05.567Z,367.91
2017-02-12T06:29:05.561Z,366.22
2017-02-12T06:30:05.566Z,365.34
2017-02-12T06:31:05.572Z,364.05
2017-02-12T06:32:05.579Z,362.11
2017-02-12T06:33:05.567Z,360.8
2017-02-12T06:34:05.558Z,360.48
2017-02-12T06:35:05.562Z,358.24
2017-02-12T06:36:05.586Z,358.75
2017-02-12T06:37:05.577Z,357.8
2017-02-12T06:38:05.574Z,356.31
2017-02-12T06:39:05.574Z,356.65
2017-02-12T06:40:05.575Z,355.97
2017-02-12T06:41:05.596Z,355
2017-02-12T06:42:05.596Z,353.59
2017-02-12T06:43:05.594Z,352.56
2017-02-12T06:44:05.602Z,352.44
2017-02-12T06:45:05.581Z,351.63
2017-02-12T06:46:05.591Z,351.88
2017-02-12T06:47:05.600Z,351.91
2017-02-12T06:48:05.579Z,351.69
2017-02-12T06:49:05.620Z,351.25
2017-02-12T06:50:05.573Z,351.9
2017-02-12T06:51:05.587Z,353.13
2017-02-12T06:52:05.567Z,353.6
2017-02-12T06:53:05.579Z,352.77
2017-02-12T06:54:05.573Z,351.69
2017-02-12T06:55:05.591Z,350.35
2017-02-12T06:56:05.575Z,350.17
2017-02-12T06:57:05.572Z,349.75
2017-02-12T06:58:05.568Z,349.78
2017-02-12T06:59:05.587Z,348.84
2017-02-12T07:00:05.576Z,349.35
2017-02-12T07:01:05.583Z,349.81
2017-02-12T07:02:05.574Z,349.38
2017-02-12T07:03:05.587Z,349.57
2017-02-12T07:04:05.575Z,350.04
2017-02-12T07:05:05.582Z,350.7
2017-02-12T07:06:05.585Z,350.67
2017-02-12T07:07:05.582Z,351.64
2017-02-12T07:08:05.584Z,350.44
2017-02-12T07:09:05.591Z,351.8
2017-02-12T07:10:05.584Z,353.54
2017-02-12T07:11:05.585Z,356.42
2017-02-12T07:12:05.588Z,358.82
2017-02-12T07:13:05.591Z,356.01
2017-02-12T07:14:05.593Z,360.12
2017-02-12T07:15:05.591Z,361.27
2017-02-12T07:16:05.599Z,362.07
2017-02-12T07:17:05.590Z,361.56
2017-02-12T07:18:05.634Z,362.11
2017-02-12T07:19:05.593Z,362.35
2017-02-12T07:20:05.596Z,364.24
2017-02-12T07:21:05.593Z,365.08
2017-02-12T07:22:05.591Z,366
2017-02-12T07:23:05.591Z,366.35
2017-02-12T07:24:05.592Z,366.49
2017-02-12T07:25:05.603Z,368.01
2017-02-12T07:26:05.594Z,369.63
2017-02-12T07:27:05.598Z,372.12
2017-02-12T07:28:05.603Z,372.4
2017-02-12T07:29:05.599Z,373.48
2017-02-12T07:30:05.596Z,374.6
2017-02-12T07:31:05.608Z,376.64
2017-02-12T07:32:05.603Z,379.32
2017-02-12T07:33:05.605Z,380.75
2017-02-12T07:34:05.602Z,382.92
2017-02-12T07:35:05.617Z,385.9
2017-02-12T07:36:05.603Z,388.85
2017-02-12T07:37:05.604Z,391.01
2017-02-12T07:38:05.610Z,393.47
2017-02-12T07:39:05.594Z,396.4
2017-02-12T07:40:05.607Z,398.27
2017-02-12T07:41:05.612Z,399.77
2017-02-12T07:42:05.612Z,402.2
2017-02-12T07:43:05.614Z,404.97
2017-02-12T07:44:05.604Z,407.53
2017-02-12T07:45:05.613Z,409.03
2017-02-12T07:46:05.614Z,410.31
2017-02-12T07:47:05.615Z,413.91
2017-02-12T07:48:05.602Z,414.71
2017-02-12T07:49:05.624Z,418.63
2017-02-12T07:50:05.617Z,420.56
2017-02-12T07:51:05.636Z,420.85
2017-02-12T07:52:05.616Z,421.9
2017-02-12T07:53:05.607Z,424.91
2017-02-12T07:54:05.614Z,426.58
2017-02-12T07:55:05.610Z,428.43
2017-02-12T07:56:05.613Z,430.36
2017-02-12T07:57:05.615Z,430.83
2017-02-12T07:58:05.625Z,432.33
2017-02-12T07:59:05.644Z,433.98
2017-02-12T08:00:05.670Z,436.36
2017-02-12T08:01:05.620Z,437.32
2017-02-12T08:02:05.629Z,438.88
2017-02-12T08:03:05.619Z,440.76
2017-02-12T08:04:05.670Z,441.85
2017-02-12T08:05:05.616Z,442.22
2017-02-12T08:06:05.623Z,443.32
2017-02-12T08:07:05.632Z,445.26
2017-02-12T08:08:05.624Z,445.52
2017-02-12T08:09:05.624Z,447.05
2017-02-12T08:10:05.638Z,449.6
2017-02-12T08:11:05.634Z,451.78
2017-02-12T08:12:05.624Z,452.62
2017-02-12T08:13:05.632Z,454.72
2017-02-12T08:14:05.633Z,456.69
2017-02-12T08:15:05.632Z,458.16
2017-02-12T08:16:05.627Z,461.61
2017-02-12T08:17:05.625Z,464.72
2017-02-12T08:18:05.628Z,466.41
2017-02-12T08:19:05.628Z,467.86
2017-02-12T08:20:05.636Z,469.41
2017-02-12T08:21:05.634Z,471.87
2017-02-12T08:22:05.627Z,474.08
2017-02-12T08:23:05.638Z,477.26
2017-02-12T08:24:05.641Z,479.55
2017-02-12T08:25:05.639Z,480.63
2017-02-12T08:26:05.636Z,481.66
2017-02-12T08:27:05.638Z,483.13
2017-02-12T08:28:05.630Z,483.09
2017-02-12T08:29:05.633Z,483.27
2017-02-12T08:30:05.637Z,485.62
2017-02-12T08:31:05.641Z,488.53
2017-02-12T08:32:05.651Z,491.46
2017-02-12T08:33:05.641Z,492.3
2017-02-12T08:34:05.639Z,492.85
2017-02-12T08:35:05.655Z,492.74
2017-02-12T08:36:05.640Z,494.76
2017-02-12T08:37:05.659Z,499.04
2017-02-12T08:38:05.637Z,502.76
2017-02-12T08:39:05.659Z,504.46
2017-02-12T08:40:05.652Z,502.13
2017-02-12T08:41:05.637Z,502.95
2017-02-12T08:42:05.650Z,503.49
2017-02-12T08:43:05.652Z,504.26
2017-02-12T08:44:05.650Z,505.75
2017-02-12T08:45:05.652Z,505.69
2017-02-12T08:46:05.658Z,507.78
2017-02-12T08:47:05.648Z,509.16
2017-02-12T08:48:05.649Z,511.28
2017-02-12T08:49:05.649Z,511.78
2017-02-12T08:50:05.652Z,513.39
2017-02-12T08:51:05.649Z,516.39
2017-02-12T08:52:05.652Z,520.72
2017-02-12T08:53:05.656Z,524.23
2017-02-12T08:54:05.657Z,527.48
2017-02-12T08:55:05.650Z,530.27
2017-02-12T08:56:05.661Z,532.3
2017-02-12T08:57:05.664Z,534.8
2017-02-12T08:58:05.657Z,541.01
2017-02-12T08:59:05.718Z,544.43
2017-02-12T09:00:05.653Z,546.14
2017-02-12T09:01:05.657Z,548.24
2017-02-12T09:02:05.657Z,550.85
2017-02-12T09:03:05.661Z,550.45
2017-02-12T09:04:05.679Z,550.93
2017-02-12T09:05:05.660Z,548.05
2017-02-12T09:06:05.669Z,545.94
2017-02-12T09:07:05.667Z,540.99
2017-02-12T09:08:05.721Z,535.76
2017-02-12T09:09:05.658Z,531.22
2017-02-12T09:10:05.667Z,529.09
2017-02-12T09:11:05.664Z,530.14
2017-02-12T09:12:05.666Z,531.75
2017-02-12T09:13:05.667Z,535.37
2017-02-12T09:14:05.683Z,538.89
2017-02-12T09:15:05.681Z,542.1
2017-02-12T09:16:05.666Z,543.63
2017-02-12T09:17:05.668Z,545.09
2017-02-12T09:18:05.673Z,544.52
2017-02-12T09:19:05.661Z,539.75
2017-02-12T09:20:05.684Z,543.23
2017-02-12T09:21:05.671Z,542.87
2017-02-12T09:22:05.687Z,541.82
2017-02-12T09:23:05.676Z,539.91
2017-02-12T09:24:05.695Z,539.04
2017-02-12T09:25:05.673Z,539.75
2017-02-12T09:26:05.675Z,541.91
2017-02-12T09:27:05.674Z,545.99
2017-02-12T09:28:05.689Z,552.66
2017-02-12T09:29:05.680Z,556.54
2017-02-12T09:30:05.676Z,560.67
2017-02-12T09:31:05.681Z,561.35
2017-02-12T09:32:05.682Z,562.06
2017-02-12T09:33:05.681Z,563.03
2017-02-12T09:34:05.689Z,566.59
2017-02-12T09:35:05.724Z,567.49
2017-02-12T09:36:05.684Z,568.62
2017-02-12T09:37:05.686Z,567.72
2017-02-12T09:38:05.730Z,567.35
2017-02-12T09:39:05.679Z,567.43
2017-02-12T09:40:05.688Z,570.25
2017-02-12T09:41:05.697Z,573.87
2017-02-12T09:42:05.703Z,575.5
2017-02-12T09:43:05.684Z,577.93
2017-02-12T09:44:05.689Z,579.8
2017-02-12T09:45:05.703Z,578.63
2017-02-12T09:46:05.693Z,578.98
2017-02-12T09:47:05.700Z,578.94
2017-02-12T09:48:05.676Z,578.5
2017-02-12T09:49:05.694Z,581.17
2017-02-12T09:50:05.699Z,580.17
2017-02-12T09:51:05.690Z,576.74
2017-02-12T09:52:05.693Z,574.36
2017-02-12T09:53:05.696Z,574.48
2017-02-12T09:54:05.692Z,573.89
2017-02-12T09:55:05.698Z,574.45
2017-02-12T09:56:05.699Z,575.2
2017-02-12T09:57:05.712Z,575.35
2017-02-12T09:58:05.707Z,574.86
2017-02-12T09:59:05.708Z,574.7
2017-02-12T10:00:05.717Z,573.94
2017-02-12T10:01:05.700Z,571.94
2017-02-12T10:02:05.702Z,571.77
2017-02-12T10:03:05.716Z,573.2
2017-02-12T10:04:05.697Z,575.89
2017-02-12T10:05:05.704Z,580.41
2017-02-12T10:06:05.706Z,583.85
2017-02-12T10:07:05.711Z,588.7
2017-02-12T10:08:05.706Z,592.17
2017-02-12T10:09:05.729Z,596.13
2017-02-12T10:10:05.709Z,600.02
2017-02-12T10:11:05.707Z,599.6
2017-02-12T10:12:05.713Z,596.58
2017-02-12T10:13:05.715Z,596.22
2017-02-12T10:14:05.714Z,593.99
2017-02-12T10:15:05.704Z,588.08
2017-02-12T10:16:05.705Z,589.3
2017-02-12T10:17:07.602Z,585.23
2017-02-12T10:18:07.398Z,589.42
2017-02-12T10:19:07.767Z,591.12
2017-02-12T10:20:07.506Z,593.06
2017-02-12T10:21:05.717Z,596.56
2017-02-12T10:22:05.717Z,598.03
2017-02-12T10:23:05.706Z,600.99
2017-02-12T10:24:05.712Z,601.85
2017-02-12T10:25:05.724Z,604.65
2017-02-12T10:26:05.712Z,609.44
2017-02-12T10:27:05.732Z,613.46
2017-02-12T10:28:05.736Z,621.41
2017-02-12T10:29:05.712Z,628.82
2017-02-12T10:30:05.731Z,635.43
2017-02-12T10:31:05.736Z,639.55
2017-02-12T10:32:05.731Z,639.81
2017-02-12T10:33:05.717Z,634.75
2017-02-12T10:34:05.719Z,635.59
2017-02-12T10:35:05.709Z,633.51
2017-02-12T10:36:05.706Z,633.19
2017-02-12T10:37:05.722Z,633.27
2017-02-12T10:38:05.732Z,636.38
2017-02-12T10:39:05.749Z,640.61
2017-02-12T10:40:05.716Z,642.49
2017-02-12T10:41:05.722Z,645.24
2017-02-12T10:42:05.724Z,650.67
2017-02-12T10:43:05.737Z,655.95
2017-02-12T10:44:05.733Z,661.75
2017-02-12T10:45:05.730Z,666.79
2017-02-12T10:46:05.733Z,668.73
2017-02-12T10:47:05.730Z,670.21
2017-02-12T10:48:05.736Z,670.42
2017-02-12T10:49:05.736Z,670.24
2017-02-12T10:50:05.740Z,670.51
2017-02-12T10:51:05.729Z,671.7
2017-02-12T10:52:05.748Z,674.87
2017-02-12T10:53:05.743Z,673.95
2017-02-12T10:54:05.748Z,673.31
2017-02-12T10:55:05.735Z,672.9
2017-02-12T10:56:05.758Z,671.8
2017-02-12T10:57:05.741Z,670.39
2017-02-12T10:58:05.740Z,670.2
2017-02-12T10:59:05.744Z,669.02
2017-02-12T11:00:05.742Z,668.18
2017-02-12T11:01:05.750Z,669.62
2017-02-12T11:02:05.748Z,669.17
2017-02-12T11:03:05.746Z,666.74
2017-02-12T11:04:05.755Z,663.19
2017-02-12T11:05:05.753Z,658.88
2017-02-12T11:06:05.747Z,657.19
2017-02-12T11:07:05.742Z,655.4
2017-02-12T11:08:06.155Z,654.44
2017-02-12T11:09:06.353Z,652.83
2017-02-12T11:10:06.485Z,653.17
2017-02-12T11:11:05.803Z,655
2017-02-12T11:12:05.755Z,657.12
2017-02-12T11:13:05.757Z,659.19
2017-02-12T11:14:05.747Z,660.52
2017-02-12T11:15:05.827Z,659.5
2017-02-12T11:16:05.936Z,656.81
2017-02-12T11:17:05.744Z,653.52
2017-02-12T11:18:05.750Z,651.54
2017-02-12T11:19:05.766Z,646.97
2017-02-12T11:20:05.754Z,643.66
2017-02-12T11:21:05.752Z,638.91
2017-02-12T11:22:05.756Z,634.47
2017-02-12T11:23:05.761Z,629.77
2017-02-12T11:24:05.759Z,626.27
2017-02-12T11:25:05.765Z,623.35
2017-02-12T11:26:05.761Z,624.82
2017-02-12T11:27:06.863Z,626.39
2017-02-12T11:28:06.189Z,628.72
2017-02-12T11:29:05.814Z,630.84
2017-02-12T11:30:05.756Z,631.61
2017-02-12T11:31:05.784Z,631.75
2017-02-12T11:32:05.758Z,631.57
2017-02-12T11:33:05.763Z,633.76
2017-02-12T11:34:05.778Z,636.37
2017-02-12T11:35:05.764Z,639.84
2017-02-12T11:36:05.763Z,643.63
2017-02-12T11:37:06.718Z,646.75
2017-02-12T11:38:05.848Z,650.42
2017-02-12T11:39:05.772Z,651.34
2017-02-12T11:40:05.769Z,650.81
2017-02-12T11:41:05.797Z,650.32
2017-02-12T11:42:05.765Z,651.62
2017-02-12T11:43:05.775Z,653.33
2017-02-12T11:44:05.796Z,653.18
2017-02-12T11:45:05.965Z,653.05
2017-02-12T11:46:05.781Z,652.55
2017-02-12T11:47:05.769Z,651.15
2017-02-12T11:48:06.108Z,648.94
2017-02-12T11:49:05.773Z,649.17
2017-02-12T11:50:10.919Z,650.22
2017-02-12T11:51:05.799Z,653.27
2017-02-12T11:52:05.777Z,654.94
2017-02-12T11:53:09.908Z,656.13
2017-02-12T11:54:05.779Z,658.26
2017-02-12T11:55:05.787Z,659.13
2017-02-12T11:56:05.786Z,658.4
2017-02-12T11:57:05.785Z,658.26
2017-02-12T11:58:05.833Z,659.75
2017-02-12T11:59:05.780Z,661.33
2017-02-12T12:00:05.783Z,662.56
2017-02-12T12:01:05.793Z,665.84
2017-02-12T12:02:05.785Z,667.96
2017-02-12T12:03:05.790Z,670.97
2017-02-12T12:04:05.780Z,673.24
2017-02-12T12:05:05.784Z,674.86
2017-02-12T12:06:05.798Z,675.68
2017-02-12T12:07:05.802Z,675.65
2017-02-12T12:08:05.797Z,673.62
2017-02-12T12:09:05.785Z,671.22
2017-02-12T12:10:10.932Z,668.94
2017-02-12T12:11:05.794Z,664.49
2017-02-12T12:12:05.803Z,660.4
2017-02-12T12:13:05.788Z,656.84
2017-02-12T12:14:05.804Z,654.34
2017-02-12T12:15:05.807Z,652.59
2017-02-12T12:16:05.799Z,651.74
2017-02-12T12:17:05.788Z,651.35
2017-02-12T12:18:05.802Z,648.75
2017-02-12T12:19:05.801Z,648.53
2017-02-12T12:20:11.920Z,645.53
2017-02-12T12:21:05.809Z,645.21
2017-02-12T12:22:05.806Z,643.97
2017-02-12T12:23:05.788Z,641.5
2017-02-12T12:24:05.791Z,641.91
2017-02-12T12:25:05.807Z,640.33
2017-02-12T12:26:05.808Z,640.67
2017-02-12T12:27:05.796Z,640.98
2017-02-12T12:28:05.799Z,642.55
2017-02-12T12:29:05.807Z,642.13
2017-02-12T12:31:05.813Z,639.94
2017-02-12T12:32:05.816Z,638.73